Terminal Aerodrome Forecast
Issued by NWS Tuscon, AZ

Home | Current Version | Previous Version | Text Only | Print | Product List | Glossary On
Versions: 1 2 3 4 5 6 7 8 9 10 11 12 13 14 15 16 17
000
FTUS45 KTWC 021737
TAFTUS
TAF
KTUS 021737Z 0218/0318 VRB04KT P6SM FEW080
     FM022100 29008KT P6SM SCT090 SCT200
     FM030200 22007KT P6SM FEW100 SCT200
     FM030700 15006KT P6SM SKC=

USA.gov is the U.S. government's official web portal to all federal, state and local government web resources and services.